sensor_id;sensor_type;location;lat;lon;timestamp;pressure;altitude;pressure_sealevel;temperature;humidity
19112;BME280;9688;51.906;8.376;2023-05-12T00:00:22;100678.25;;;14.01;100.00
19112;BME280;9688;51.906;8.376;2023-05-12T00:03:08;100684.41;;;14.01;100.00
19112;BME280;9688;51.906;8.376;2023-05-12T00:05:55;100676.53;;;14.00;100.00
19112;BME280;9688;51.906;8.376;2023-05-12T00:08:43;100680.09;;;13.99;100.00
19112;BME280;9688;51.906;8.376;2023-05-12T00:11:29;100691.69;;;13.98;100.00
19112;BME280;9688;51.906;8.376;2023-05-12T00:14:16;100694.41;;;13.96;100.00
19112;BME280;9688;51.906;8.376;2023-05-12T00:17:02;100693.66;;;13.94;100.00
19112;BME280;9688;51.906;8.376;2023-05-12T00:19:47;100701.69;;;13.93;100.00
19112;BME280;9688;51.906;8.376;2023-05-12T00:22:34;100699.88;;;13.93;100.00
19112;BME280;9688;51.906;8.376;2023-05-12T00:25:20;100700.91;;;13.91;100.00
19112;BME280;9688;51.906;8.376;2023-05-12T00:28:06;100704.50;;;13.90;100.00
19112;BME280;9688;51.906;8.376;2023-05-12T00:30:52;100708.19;;;13.87;100.00
19112;BME280;9688;51.906;8.376;2023-05-12T00:33:38;100702.97;;;13.86;100.00
19112;BME280;9688;51.906;8.376;2023-05-12T00:36:25;100700.22;;;13.87;100.00
19112;BME280;9688;51.906;8.376;2023-05-12T00:39:12;100696.75;;;13.85;100.00
19112;BME280;9688;51.906;8.376;2023-05-12T00:41:58;100693.19;;;13.86;100.00
19112;BME280;9688;51.906;8.376;2023-05-12T00:44:44;100705.63;;;13.86;100.00
19112;BME280;9688;51.906;8.376;2023-05-12T00:47:30;100700.38;;;13.84;100.00
19112;BME280;9688;51.906;8.376;2023-05-12T00:50:16;100697.72;;;13.84;100.00
19112;BME280;9688;51.906;8.376;2023-05-12T00:53:03;100694.19;;;13.83;100.00
19112;BME280;9688;51.906;8.376;2023-05-12T00:55:50;100688.94;;;13.82;100.00
19112;BME280;9688;51.906;8.376;2023-05-12T00:58:37;100691.59;;;13.82;100.00
19112;BME280;9688;51.906;8.376;2023-05-12T01:01:23;100686.38;;;13.80;100.00
19112;BME280;9688;51.906;8.376;2023-05-12T01:04:09;100689.09;;;13.79;100.00
19112;BME280;9688;51.906;8.376;2023-05-12T01:06:58;100681.22;;;13.77;100.00
19112;BME280;9688;51.906;8.376;2023-05-12T01:09:45;100690.13;;;13.76;100.00
19112;BME280;9688;51.906;8.376;2023-05-12T01:12:33;100685.81;;;13.74;100.00
19112;BME280;9688;51.906;8.376;2023-05-12T01:15:19;100684.16;;;13.71;100.00
19112;BME280;9688;51.906;8.376;2023-05-12T01:18:05;100684.34;;;13.68;100.00
19112;BME280;9688;51.906;8.376;2023-05-12T01:20:52;100680.97;;;13.65;100.00
19112;BME280;9688;51.906;8.376;2023-05-12T01:23:45;100687.31;;;13.62;100.00
19112;BME280;9688;51.906;8.376;2023-05-12T01:26:34;100692.69;;;13.60;100.00
19112;BME280;9688;51.906;8.376;2023-05-12T01:29:20;100689.16;;;13.60;100.00
19112;BME280;9688;51.906;8.376;2023-05-12T01:32:07;100689.31;;;13.57;100.00
19112;BME280;9688;51.906;8.376;2023-05-12T01:34:53;100704.41;;;13.56;100.00
19112;BME280;9688;51.906;8.376;2023-05-12T01:37:39;100703.56;;;13.56;100.00
19112;BME280;9688;51.906;8.376;2023-05-12T01:40:24;100708.88;;;13.56;100.00
19112;BME280;9688;51.906;8.376;2023-05-12T01:43:12;100717.69;;;13.56;100.00
19112;BME280;9688;51.906;8.376;2023-05-12T01:45:58;100713.31;;;13.55;100.00
19112;BME280;9688;51.906;8.376;2023-05-12T01:48:43;100717.84;;;13.53;100.00
19112;BME280;9688;51.906;8.376;2023-05-12T01:51:29;100714.34;;;13.53;100.00
19112;BME280;9688;51.906;8.376;2023-05-12T01:54:14;100714.47;;;13.50;100.00
19112;BME280;9688;51.906;8.376;2023-05-12T01:57:00;100710.19;;;13.47;100.00
19112;BME280;9688;51.906;8.376;2023-05-12T01:59:47;100716.41;;;13.46;100.00
19112;BME280;9688;51.906;8.376;2023-05-12T02:02:33;100718.22;;;13.46;100.00
19112;BME280;9688;51.906;8.376;2023-05-12T02:05:18;100720.00;;;13.45;100.00
19112;BME280;9688;51.906;8.376;2023-05-12T02:08:04;100718.31;;;13.44;100.00
19112;BME280;9688;51.906;8.376;2023-05-12T02:11:03;100720.97;;;13.44;100.00
19112;BME280;9688;51.906;8.376;2023-05-12T02:13:48;100725.09;;;13.50;100.00
19112;BME280;9688;51.906;8.376;2023-05-12T02:16:35;100721.44;;;13.52;100.00
19112;BME280;9688;51.906;8.376;2023-05-12T02:19:21;100727.66;;;13.51;100.00
19112;BME280;9688;51.906;8.376;2023-05-12T02:22:06;100725.09;;;13.50;100.00
19112;BME280;9688;51.906;8.376;2023-05-12T02:24:53;100725.81;;;13.53;100.00
19112;BME280;9688;51.906;8.376;2023-05-12T02:27:38;100732.94;;;13.53;100.00
19112;BME280;9688;51.906;8.376;2023-05-12T02:30:24;100731.97;;;13.54;100.00
19112;BME280;9688;51.906;8.376;2023-05-12T02:33:11;100738.09;;;13.56;100.00
19112;BME280;9688;51.906;8.376;2023-05-12T02:35:57;100730.19;;;13.54;100.00
19112;BME280;9688;51.906;8.376;2023-05-12T02:38:43;100734.72;;;13.52;100.00
19112;BME280;9688;51.906;8.376;2023-05-12T02:41:28;100731.03;;;13.55;100.00
19112;BME280;9688;51.906;8.376;2023-05-12T02:44:14;100719.50;;;13.56;100.00
19112;BME280;9688;51.906;8.376;2023-05-12T02:47:00;100717.75;;;13.55;100.00
19112;BME280;9688;51.906;8.376;2023-05-12T02:49:47;100720.41;;;13.55;100.00
19112;BME280;9688;51.906;8.376;2023-05-12T02:52:33;100722.16;;;13.56;100.00
19112;BME280;9688;51.906;8.376;2023-05-12T02:55:18;100716.84;;;13.56;100.00
19112;BME280;9688;51.906;8.376;2023-05-12T02:58:06;100705.25;;;13.57;100.00
19112;BME280;9688;51.906;8.376;2023-05-12T03:00:53;100714.25;;;13.54;100.00
19112;BME280;9688;51.906;8.376;2023-05-12T03:03:39;100718.84;;;13.51;100.00
19112;BME280;9688;51.906;8.376;2023-05-12T03:06:26;100707.53;;;13.47;100.00
19112;BME280;9688;51.906;8.376;2023-05-12T03:09:12;100704.78;;;13.49;100.00
19112;BME280;9688;51.906;8.376;2023-05-12T03:11:58;100713.53;;;13.51;100.00
19112;BME280;9688;51.906;8.376;2023-05-12T03:14:46;100713.38;;;13.54;100.00
19112;BME280;9688;51.906;8.376;2023-05-12T03:17:32;100715.03;;;13.56;100.00
19112;BME280;9688;51.906;8.376;2023-05-12T03:20:20;100722.06;;;13.57;100.00
19112;BME280;9688;51.906;8.376;2023-05-12T03:23:07;100710.56;;;13.57;100.00
19112;BME280;9688;51.906;8.376;2023-05-12T03:25:52;100715.88;;;13.57;100.00
19112;BME280;9688;51.906;8.376;2023-05-12T03:28:38;100719.25;;;13.60;100.00
19112;BME280;9688;51.906;8.376;2023-05-12T03:31:24;100711.16;;;13.64;100.00
19112;BME280;9688;51.906;8.376;2023-05-12T03:34:10;100719.97;;;13.64;100.00
19112;BME280;9688;51.906;8.376;2023-05-12T03:36:56;100719.81;;;13.67;100.00
19112;BME280;9688;51.906;8.376;2023-05-12T03:39:43;100724.13;;;13.70;100.00
19112;BME280;9688;51.906;8.376;2023-05-12T03:42:32;100721.38;;;13.71;100.00
19112;BME280;9688;51.906;8.376;2023-05-12T03:45:17;100718.81;;;13.70;100.00
19112;BME280;9688;51.906;8.376;2023-05-12T03:48:03;100726.78;;;13.70;100.00
19112;BME280;9688;51.906;8.376;2023-05-12T03:50:50;100726.84;;;13.68;100.00
19112;BME280;9688;51.906;8.376;2023-05-12T03:53:35;100723.25;;;13.69;100.00
19112;BME280;9688;51.906;8.376;2023-05-12T03:56:24;100722.31;;;13.70;100.00
19112;BME280;9688;51.906;8.376;2023-05-12T03:59:11;100717.84;;;13.71;100.00
19112;BME280;9688;51.906;8.376;2023-05-12T04:01:57;100720.44;;;13.72;100.00
19112;BME280;9688;51.906;8.376;2023-05-12T04:04:42;100733.47;;;13.77;100.00
19112;BME280;9688;51.906;8.376;2023-05-12T04:07:28;100735.13;;;13.79;100.00
19112;BME280;9688;51.906;8.376;2023-05-12T04:10:14;100736.72;;;13.83;100.00
19112;BME280;9688;51.906;8.376;2023-05-12T04:13:10;100739.38;;;13.83;100.00
19112;BME280;9688;51.906;8.376;2023-05-12T04:15:59;100739.91;;;13.90;100.00
19112;BME280;9688;51.906;8.376;2023-05-12T04:18:45;100745.78;;;13.97;100.00
19112;BME280;9688;51.906;8.376;2023-05-12T04:21:32;100740.53;;;13.95;100.00
19112;BME280;9688;51.906;8.376;2023-05-12T04:24:17;100751.88;;;13.99;100.00
19112;BME280;9688;51.906;8.376;2023-05-12T04:27:04;100749.06;;;14.02;100.00
19112;BME280;9688;51.906;8.376;2023-05-12T04:29:51;100748.84;;;14.06;100.00
19112;BME280;9688;51.906;8.376;2023-05-12T04:32:39;100754.78;;;14.12;100.00
19112;BME280;9688;51.906;8.376;2023-05-12T04:35:24;100758.06;;;14.17;100.00
19112;BME280;9688;51.906;8.376;2023-05-12T04:38:11;100764.94;;;14.21;100.00
19112;BME280;9688;51.906;8.376;2023-05-12T04:40:57;100759.47;;;14.24;100.00
19112;BME280;9688;51.906;8.376;2023-05-12T04:43:43;100771.56;;;14.29;100.00
19112;BME280;9688;51.906;8.376;2023-05-12T04:46:30;100769.53;;;14.35;100.00
19112;BME280;9688;51.906;8.376;2023-05-12T04:49:16;100772.94;;;14.38;100.00
19112;BME280;9688;51.906;8.376;2023-05-12T04:52:01;100778.94;;;14.42;100.00
19112;BME280;9688;51.906;8.376;2023-05-12T04:54:48;100784.94;;;14.45;100.00
19112;BME280;9688;51.906;8.376;2023-05-12T04:57:34;100794.50;;;14.49;100.00
19112;BME280;9688;51.906;8.376;2023-05-12T05:00:20;100789.91;;;14.53;100.00
19112;BME280;9688;51.906;8.376;2023-05-12T05:03:07;100793.09;;;14.60;100.00
19112;BME280;9688;51.906;8.376;2023-05-12T05:05:53;100806.97;;;14.66;100.00
19112;BME280;9688;51.906;8.376;2023-05-12T05:08:39;100804.13;;;14.69;100.00
19112;BME280;9688;51.906;8.376;2023-05-12T05:11:25;100808.34;;;14.73;100.00
19112;BME280;9688;51.906;8.376;2023-05-12T05:14:11;100812.56;;;14.78;100.00
19112;BME280;9688;51.906;8.376;2023-05-12T05:16:57;100814.06;;;14.83;100.00
19112;BME280;9688;51.906;8.376;2023-05-12T05:19:44;100813.78;;;14.88;100.00
19112;BME280;9688;51.906;8.376;2023-05-12T05:22:30;100818.09;;;14.90;100.00
19112;BME280;9688;51.906;8.376;2023-05-12T05:25:16;100825.91;;;14.93;100.00
19112;BME280;9688;51.906;8.376;2023-05-12T05:28:02;100823.00;;;14.98;100.00
19112;BME280;9688;51.906;8.376;2023-05-12T05:30:48;100836.00;;;15.04;100.00
19112;BME280;9688;51.906;8.376;2023-05-12T05:33:34;100834.09;;;15.06;100.00
19112;BME280;9688;51.906;8.376;2023-05-12T05:36:22;100843.66;;;15.10;100.00
19112;BME280;9688;51.906;8.376;2023-05-12T05:39:09;100843.41;;;15.15;100.00
19112;BME280;9688;51.906;8.376;2023-05-12T05:41:56;100843.16;;;15.20;100.00
19112;BME280;9688;51.906;8.376;2023-05-12T05:44:42;100844.88;;;15.21;100.00
19112;BME280;9688;51.906;8.376;2023-05-12T05:47:30;100853.81;;;15.20;100.00
19112;BME280;9688;51.906;8.376;2023-05-12T05:50:17;100849.09;;;15.25;100.00
19112;BME280;9688;51.906;8.376;2023-05-12T05:53:05;100846.16;;;15.29;100.00
19112;BME280;9688;51.906;8.376;2023-05-12T05:55:52;100853.94;;;15.34;100.00
19112;BME280;9688;51.906;8.376;2023-05-12T05:58:38;100854.44;;;15.40;100.00
19112;BME280;9688;51.906;8.376;2023-05-12T06:01:26;100865.53;;;15.49;100.00
19112;BME280;9688;51.906;8.376;2023-05-12T06:04:13;100866.16;;;15.54;100.00
19112;BME280;9688;51.906;8.376;2023-05-12T06:06:59;100872.09;;;15.59;100.00
19112;BME280;9688;51.906;8.376;2023-05-12T06:09:49;100869.19;;;15.64;100.00
19112;BME280;9688;51.906;8.376;2023-05-12T06:12:36;100880.19;;;15.73;100.00
19112;BME280;9688;51.906;8.376;2023-05-12T06:15:24;100884.25;;;15.80;100.00
19112;BME280;9688;51.906;8.376;2023-05-12T06:18:11;100877.72;;;15.86;100.00
19112;BME280;9688;51.906;8.376;2023-05-12T06:20:57;100882.63;;;15.94;100.00
19112;BME280;9688;51.906;8.376;2023-05-12T06:23:42;100885.78;;;16.00;100.00
19112;BME280;9688;51.906;8.376;2023-05-12T06:26:31;100889.72;;;16.09;100.00
19112;BME280;9688;51.906;8.376;2023-05-12T06:29:17;100892.03;;;16.15;100.00
19112;BME280;9688;51.906;8.376;2023-05-12T06:32:05;100895.50;;;16.17;100.00
19112;BME280;9688;51.906;8.376;2023-05-12T06:34:51;100892.56;;;16.22;100.00
19112;BME280;9688;51.906;8.376;2023-05-12T06:37:37;100888.69;;;16.27;100.00
19112;BME280;9688;51.906;8.376;2023-05-12T06:40:23;100892.03;;;16.31;100.00
19112;BME280;9688;51.906;8.376;2023-05-12T06:43:10;100892.63;;;16.36;100.00
19112;BME280;9688;51.906;8.376;2023-05-12T06:45:56;100894.84;;;16.44;100.00
19112;BME280;9688;51.906;8.376;2023-05-12T06:48:44;100899.56;;;16.55;100.00
19112;BME280;9688;51.906;8.376;2023-05-12T06:51:30;100909.59;;;16.65;100.00
19112;BME280;9688;51.906;8.376;2023-05-12T06:54:16;100903.72;;;16.75;100.00
19112;BME280;9688;51.906;8.376;2023-05-12T06:57:02;100891.53;;;16.85;100.00
19112;BME280;9688;51.906;8.376;2023-05-12T06:59:52;100897.19;;;16.94;100.00
19112;BME280;9688;51.906;8.376;2023-05-12T07:02:44;100893.69;;;17.08;100.00
19112;BME280;9688;51.906;8.376;2023-05-12T07:05:30;100900.38;;;17.15;100.00
19112;BME280;9688;51.906;8.376;2023-05-12T07:08:16;100898.84;;;17.26;99.94
19112;BME280;9688;51.906;8.376;2023-05-12T07:11:02;100903.34;;;17.39;99.28
19112;BME280;9688;51.906;8.376;2023-05-12T07:13:48;100892.94;;;17.49;98.84
19112;BME280;9688;51.906;8.376;2023-05-12T07:16:36;100897.63;;;17.60;98.33
19112;BME280;9688;51.906;8.376;2023-05-12T07:19:21;100900.34;;;17.73;97.92
19112;BME280;9688;51.906;8.376;2023-05-12T07:22:07;100904.19;;;17.83;97.52
19112;BME280;9688;51.906;8.376;2023-05-12T07:24:53;100916.03;;;17.93;97.33
19112;BME280;9688;51.906;8.376;2023-05-12T07:27:39;100909.66;;;18.09;97.32
19112;BME280;9688;51.906;8.376;2023-05-12T07:30:25;100907.25;;;18.18;96.27
19112;BME280;9688;51.906;8.376;2023-05-12T07:33:12;100902.91;;;18.30;95.92
19112;BME280;9688;51.906;8.376;2023-05-12T07:36:00;100908.31;;;18.43;95.70
19112;BME280;9688;51.906;8.376;2023-05-12T07:38:46;100907.97;;;18.47;95.33
19112;BME280;9688;51.906;8.376;2023-05-12T07:41:32;100902.88;;;18.57;94.16
19112;BME280;9688;51.906;8.376;2023-05-12T07:44:17;100905.13;;;18.63;93.79
19112;BME280;9688;51.906;8.376;2023-05-12T07:47:03;100902.41;;;18.78;93.48
19112;BME280;9688;51.906;8.376;2023-05-12T07:49:51;100896.34;;;19.01;92.62
19112;BME280;9688;51.906;8.376;2023-05-12T07:52:45;100897.84;;;19.18;91.91
19112;BME280;9688;51.906;8.376;2023-05-12T07:55:31;100901.16;;;19.34;92.22
19112;BME280;9688;51.906;8.376;2023-05-12T07:58:17;100901.03;;;19.49;91.26
19112;BME280;9688;51.906;8.376;2023-05-12T08:01:03;100895.75;;;19.60;90.22
19112;BME280;9688;51.906;8.376;2023-05-12T08:03:51;100899.91;;;19.64;89.47
19112;BME280;9688;51.906;8.376;2023-05-12T08:06:40;100903.38;;;19.79;89.08
19112;BME280;9688;51.906;8.376;2023-05-12T08:09:27;100903.47;;;19.77;89.42
19112;BME280;9688;51.906;8.376;2023-05-12T08:12:18;100900.69;;;19.79;89.30
19112;BME280;9688;51.906;8.376;2023-05-12T08:15:06;100907.31;;;19.86;89.43
19112;BME280;9688;51.906;8.376;2023-05-12T08:17:51;100902.56;;;19.90;88.88
19112;BME280;9688;51.906;8.376;2023-05-12T08:20:37;100906.84;;;19.92;88.28
19112;BME280;9688;51.906;8.376;2023-05-12T08:23:25;100907.22;;;20.12;87.12
19112;BME280;9688;51.906;8.376;2023-05-12T08:26:11;100905.00;;;20.30;86.70
19112;BME280;9688;51.906;8.376;2023-05-12T08:28:56;100915.22;;;20.48;85.86
19112;BME280;9688;51.906;8.376;2023-05-12T08:31:43;100915.41;;;20.58;85.65
19112;BME280;9688;51.906;8.376;2023-05-12T08:34:29;100910.22;;;20.79;85.45
19112;BME280;9688;51.906;8.376;2023-05-12T08:37:17;100916.59;;;20.89;84.41
19112;BME280;9688;51.906;8.376;2023-05-12T08:40:13;100909.28;;;20.91;84.15
19112;BME280;9688;51.906;8.376;2023-05-12T08:43:06;100911.19;;;20.78;82.75
19112;BME280;9688;51.906;8.376;2023-05-12T08:45:55;100908.22;;;20.70;83.53
19112;BME280;9688;51.906;8.376;2023-05-12T08:48:44;100911.53;;;20.62;82.67
19112;BME280;9688;51.906;8.376;2023-05-12T08:51:31;100916.94;;;20.74;83.53
19112;BME280;9688;51.906;8.376;2023-05-12T08:54:17;100916.59;;;20.89;83.43
19112;BME280;9688;51.906;8.376;2023-05-12T08:57:08;100919.09;;;21.04;83.58
19112;BME280;9688;51.906;8.376;2023-05-12T08:59:55;100914.53;;;20.93;83.99
19112;BME280;9688;51.906;8.376;2023-05-12T09:02:42;100918.84;;;20.96;84.05
19112;BME280;9688;51.906;8.376;2023-05-12T09:05:28;100914.81;;;21.01;84.37
19112;BME280;9688;51.906;8.376;2023-05-12T09:08:15;100914.75;;;20.79;83.87
19112;BME280;9688;51.906;8.376;2023-05-12T09:11:02;100910.94;;;20.46;83.94
19112;BME280;9688;51.906;8.376;2023-05-12T09:13:53;100903.56;;;20.13;84.47
19112;BME280;9688;51.906;8.376;2023-05-12T09:16:53;100906.81;;;20.05;85.72
19112;BME280;9688;51.906;8.376;2023-05-12T09:19:40;100907.03;;;20.02;86.16
19112;BME280;9688;51.906;8.376;2023-05-12T09:22:28;100905.41;;;20.12;85.93
19112;BME280;9688;51.906;8.376;2023-05-12T09:25:14;100902.13;;;20.20;85.78
19112;BME280;9688;51.906;8.376;2023-05-12T09:28:02;100900.94;;;20.24;85.37
19112;BME280;9688;51.906;8.376;2023-05-12T09:30:49;100896.75;;;20.20;84.82
19112;BME280;9688;51.906;8.376;2023-05-12T09:33:35;100904.38;;;20.26;84.91
19112;BME280;9688;51.906;8.376;2023-05-12T09:36:22;100899.16;;;20.36;84.96
19112;BME280;9688;51.906;8.376;2023-05-12T09:39:08;100890.38;;;20.58;83.68
19112;BME280;9688;51.906;8.376;2023-05-12T09:41:55;100898.63;;;20.79;82.70
19112;BME280;9688;51.906;8.376;2023-05-12T09:44:41;100893.28;;;20.90;81.62
19112;BME280;9688;51.906;8.376;2023-05-12T09:47:33;100890.22;;;20.94;81.04
19112;BME280;9688;51.906;8.376;2023-05-12T09:50:19;100892.53;;;20.88;80.79
19112;BME280;9688;51.906;8.376;2023-05-12T09:53:06;100891.44;;;20.79;79.12
19112;BME280;9688;51.906;8.376;2023-05-12T09:55:54;100888.34;;;20.72;79.14
19112;BME280;9688;51.906;8.376;2023-05-12T09:58:44;100883.88;;;20.84;78.48
19112;BME280;9688;51.906;8.376;2023-05-12T10:01:31;100893.16;;;21.03;77.66
19112;BME280;9688;51.906;8.376;2023-05-12T10:04:20;100884.03;;;21.16;76.98
19112;BME280;9688;51.906;8.376;2023-05-12T10:07:07;100882.69;;;21.33;76.23
19112;BME280;9688;51.906;8.376;2023-05-12T10:09:57;100880.41;;;21.40;74.82
19112;BME280;9688;51.906;8.376;2023-05-12T10:12:45;100888.47;;;21.40;72.80
19112;BME280;9688;51.906;8.376;2023-05-12T10:15:33;100896.91;;;21.47;70.81
19112;BME280;9688;51.906;8.376;2023-05-12T10:18:20;100886.16;;;21.47;69.63
19112;BME280;9688;51.906;8.376;2023-05-12T10:21:08;100887.38;;;21.54;68.97
19112;BME280;9688;51.906;8.376;2023-05-12T10:23:56;100884.69;;;21.65;69.26
19112;BME280;9688;51.906;8.376;2023-05-12T10:26:44;100882.56;;;21.80;69.54
19112;BME280;9688;51.906;8.376;2023-05-12T10:29:31;100876.91;;;21.94;69.36
19112;BME280;9688;51.906;8.376;2023-05-12T10:32:17;100882.28;;;21.94;69.10
19112;BME280;9688;51.906;8.376;2023-05-12T10:35:07;100874.47;;;21.91;68.93
19112;BME280;9688;51.906;8.376;2023-05-12T10:37:55;100873.50;;;21.92;68.87
19112;BME280;9688;51.906;8.376;2023-05-12T10:41:01;100881.19;;;21.97;68.98
19112;BME280;9688;51.906;8.376;2023-05-12T10:43:53;100872.47;;;22.04;69.18
19112;BME280;9688;51.906;8.376;2023-05-12T10:46:39;100874.41;;;22.14;68.84
19112;BME280;9688;51.906;8.376;2023-05-12T10:49:33;100870.47;;;22.29;67.47
19112;BME280;9688;51.906;8.376;2023-05-12T10:52:22;100867.56;;;22.42;67.34
19112;BME280;9688;51.906;8.376;2023-05-12T10:55:11;100872.38;;;22.38;65.80
19112;BME280;9688;51.906;8.376;2023-05-12T10:58:07;100867.56;;;22.42;65.76
19112;BME280;9688;51.906;8.376;2023-05-12T11:00:54;100869.69;;;22.38;65.47
19112;BME280;9688;51.906;8.376;2023-05-12T11:03:41;100859.25;;;22.45;64.82
19112;BME280;9688;51.906;8.376;2023-05-12T11:06:28;100869.63;;;22.49;64.36
19112;BME280;9688;51.906;8.376;2023-05-12T11:09:17;100862.59;;;22.58;63.14
19112;BME280;9688;51.906;8.376;2023-05-12T11:12:08;100860.00;;;22.68;61.72
19112;BME280;9688;51.906;8.376;2023-05-12T11:14:54;100868.41;;;22.75;61.64
19112;BME280;9688;51.906;8.376;2023-05-12T11:17:40;100860.13;;;22.87;61.12
19112;BME280;9688;51.906;8.376;2023-05-12T11:20:27;100855.41;;;23.01;60.28
19112;BME280;9688;51.906;8.376;2023-05-12T11:23:23;100866.50;;;23.07;59.40
19112;BME280;9688;51.906;8.376;2023-05-12T11:26:16;100860.81;;;23.01;58.16
19112;BME280;9688;51.906;8.376;2023-05-12T11:29:06;100869.75;;;23.01;57.52
19112;BME280;9688;51.906;8.376;2023-05-12T11:31:52;100860.38;;;23.05;57.92
19112;BME280;9688;51.906;8.376;2023-05-12T11:34:39;100869.84;;;23.21;57.92
19112;BME280;9688;51.906;8.376;2023-05-12T11:37:25;100871.16;;;23.36;58.11
19112;BME280;9688;51.906;8.376;2023-05-12T11:40:17;100869.53;;;23.45;56.85
19112;BME280;9688;51.906;8.376;2023-05-12T11:43:08;100862.84;;;23.49;57.52
19112;BME280;9688;51.906;8.376;2023-05-12T11:45:56;100862.16;;;23.56;56.52
19112;BME280;9688;51.906;8.376;2023-05-12T11:48:43;100866.72;;;23.56;56.05
19112;BME280;9688;51.906;8.376;2023-05-12T11:51:30;100875.25;;;23.61;56.19
19112;BME280;9688;51.906;8.376;2023-05-12T11:54:17;100873.88;;;23.67;55.57
19112;BME280;9688;51.906;8.376;2023-05-12T11:57:04;100868.91;;;23.72;55.43
19112;BME280;9688;51.906;8.376;2023-05-12T11:59:55;100871.94;;;23.78;54.99
19112;BME280;9688;51.906;8.376;2023-05-12T12:02:43;100870.69;;;23.92;55.01
19112;BME280;9688;51.906;8.376;2023-05-12T12:05:29;100864.59;;;24.10;54.96
19112;BME280;9688;51.906;8.376;2023-05-12T12:08:15;100869.88;;;24.11;54.95
19112;BME280;9688;51.906;8.376;2023-05-12T12:11:01;100865.69;;;23.88;54.39
19112;BME280;9688;51.906;8.376;2023-05-12T12:13:48;100868.06;;;23.71;54.22
19112;BME280;9688;51.906;8.376;2023-05-12T12:16:35;100874.72;;;23.67;54.69
19112;BME280;9688;51.906;8.376;2023-05-12T12:19:23;100868.59;;;23.65;54.77
19112;BME280;9688;51.906;8.376;2023-05-12T12:22:10;100872.28;;;23.64;55.12
19112;BME280;9688;51.906;8.376;2023-05-12T12:24:56;100877.00;;;23.72;54.68
19112;BME280;9688;51.906;8.376;2023-05-12T12:27:42;100870.97;;;23.99;54.29
19112;BME280;9688;51.906;8.376;2023-05-12T12:30:28;100867.31;;;24.29;53.54
19112;BME280;9688;51.906;8.376;2023-05-12T12:33:15;100872.84;;;24.27;52.33
19112;BME280;9688;51.906;8.376;2023-05-12T12:36:04;100867.16;;;24.31;52.42
19112;BME280;9688;51.906;8.376;2023-05-12T12:38:51;100879.25;;;24.26;52.51
19112;BME280;9688;51.906;8.376;2023-05-12T12:41:36;100872.56;;;24.31;52.28
19112;BME280;9688;51.906;8.376;2023-05-12T12:44:22;100870.56;;;24.42;51.64
19112;BME280;9688;51.906;8.376;2023-05-12T12:47:09;100866.19;;;24.51;51.19
19112;BME280;9688;51.906;8.376;2023-05-12T12:49:57;100872.59;;;24.50;50.92
19112;BME280;9688;51.906;8.376;2023-05-12T12:52:48;100877.28;;;24.48;50.68
19112;BME280;9688;51.906;8.376;2023-05-12T12:55:34;100869.88;;;24.60;50.16
19112;BME280;9688;51.906;8.376;2023-05-12T12:58:21;100865.75;;;24.65;49.85
19112;BME280;9688;51.906;8.376;2023-05-12T13:01:08;100871.56;;;24.61;50.38
19112;BME280;9688;51.906;8.376;2023-05-12T13:03:54;100876.00;;;24.62;50.89
19112;BME280;9688;51.906;8.376;2023-05-12T13:06:41;100882.81;;;24.66;50.12
19112;BME280;9688;51.906;8.376;2023-05-12T13:09:28;100880.41;;;24.63;50.24
19112;BME280;9688;51.906;8.376;2023-05-12T13:12:14;100892.91;;;24.74;49.29
19112;BME280;9688;51.906;8.376;2023-05-12T13:15:00;100880.97;;;24.57;49.59
19112;BME280;9688;51.906;8.376;2023-05-12T13:17:46;100885.50;;;24.37;49.60
19112;BME280;9688;51.906;8.376;2023-05-12T13:20:31;100887.19;;;24.18;49.69
19112;BME280;9688;51.906;8.376;2023-05-12T13:23:19;100879.50;;;24.04;49.59
19112;BME280;9688;51.906;8.376;2023-05-12T13:26:06;100886.31;;;23.98;48.83
19112;BME280;9688;51.906;8.376;2023-05-12T13:28:52;100889.16;;;23.87;49.10
19112;BME280;9688;51.906;8.376;2023-05-12T13:31:38;100894.22;;;23.80;49.25
19112;BME280;9688;51.906;8.376;2023-05-12T13:34:25;100894.66;;;23.76;48.97
19112;BME280;9688;51.906;8.376;2023-05-12T13:37:11;100891.50;;;23.71;47.64
19112;BME280;9688;51.906;8.376;2023-05-12T13:39:57;100895.00;;;23.62;47.18
19112;BME280;9688;51.906;8.376;2023-05-12T13:42:47;100887.03;;;23.50;47.14
19112;BME280;9688;51.906;8.376;2023-05-12T13:45:34;100888.59;;;23.53;48.20
19112;BME280;9688;51.906;8.376;2023-05-12T13:48:23;100896.19;;;23.38;49.91
19112;BME280;9688;51.906;8.376;2023-05-12T13:51:11;100892.41;;;23.20;50.61
19112;BME280;9688;51.906;8.376;2023-05-12T13:54:02;100889.00;;;22.97;52.28
19112;BME280;9688;51.906;8.376;2023-05-12T13:56:49;100901.00;;;22.71;53.25
19112;BME280;9688;51.906;8.376;2023-05-12T13:59:38;100885.81;;;22.49;54.21
19112;BME280;9688;51.906;8.376;2023-05-12T14:02:25;100887.59;;;22.39;54.81
19112;BME280;9688;51.906;8.376;2023-05-12T14:05:15;100895.88;;;22.36;55.14
19112;BME280;9688;51.906;8.376;2023-05-12T14:08:01;100895.88;;;22.36;55.73
19112;BME280;9688;51.906;8.376;2023-05-12T14:10:47;100896.88;;;22.35;55.62
19112;BME280;9688;51.906;8.376;2023-05-12T14:13:36;100893.81;;;22.40;55.93
19112;BME280;9688;51.906;8.376;2023-05-12T14:16:24;100883.88;;;22.40;56.23
19112;BME280;9688;51.906;8.376;2023-05-12T14:19:10;100892.81;;;22.41;56.62
19112;BME280;9688;51.906;8.376;2023-05-12T14:21:56;100882.53;;;22.46;56.52
19112;BME280;9688;51.906;8.376;2023-05-12T14:24:43;100880.66;;;22.46;55.97
19112;BME280;9688;51.906;8.376;2023-05-12T14:27:31;100877.59;;;22.51;55.20
19112;BME280;9688;51.906;8.376;2023-05-12T14:30:18;100878.91;;;22.57;55.05
19112;BME280;9688;51.906;8.376;2023-05-12T14:33:06;100885.63;;;22.62;53.75
19112;BME280;9688;51.906;8.376;2023-05-12T14:35:52;100885.25;;;22.67;52.84
19112;BME280;9688;51.906;8.376;2023-05-12T14:38:39;100881.59;;;22.78;51.85